sensor_id;sensor_type;location;lat;lon;timestamp;temperature;humidity
23087;DHT22;11712;51.134;4.156;2023-02-01T00:01:39;6.70;99.90
23087;DHT22;11712;51.134;4.156;2023-02-01T00:04:05;6.70;99.90
23087;DHT22;11712;51.134;4.156;2023-02-01T00:06:31;6.70;99.90
23087;DHT22;11712;51.134;4.156;2023-02-01T00:08:56;6.70;99.90
23087;DHT22;11712;51.134;4.156;2023-02-01T00:11:22;6.60;99.90
23087;DHT22;11712;51.134;4.156;2023-02-01T00:13:49;6.60;99.90
23087;DHT22;11712;51.134;4.156;2023-02-01T00:16:19;6.60;99.90
23087;DHT22;11712;51.134;4.156;2023-02-01T00:18:46;6.50;99.90
23087;DHT22;11712;51.134;4.156;2023-02-01T00:21:14;6.50;99.90
23087;DHT22;11712;51.134;4.156;2023-02-01T00:23:40;6.40;99.90
23087;DHT22;11712;51.134;4.156;2023-02-01T00:26:10;6.40;99.90
23087;DHT22;11712;51.134;4.156;2023-02-01T00:28:38;6.30;99.90
23087;DHT22;11712;51.134;4.156;2023-02-01T00:31:04;6.40;99.90
23087;DHT22;11712;51.134;4.156;2023-02-01T00:33:31;6.40;99.90
23087;DHT22;11712;51.134;4.156;2023-02-01T00:36:03;6.50;99.90
23087;DHT22;11712;51.134;4.156;2023-02-01T00:38:29;6.50;99.90
23087;DHT22;11712;51.134;4.156;2023-02-01T00:41:05;6.50;99.90
23087;DHT22;11712;51.134;4.156;2023-02-01T00:43:32;6.50;99.90
23087;DHT22;11712;51.134;4.156;2023-02-01T00:45:57;6.60;99.90
23087;DHT22;11712;51.134;4.156;2023-02-01T00:48:24;6.50;99.90
23087;DHT22;11712;51.134;4.156;2023-02-01T00:50:49;6.50;99.90
23087;DHT22;11712;51.134;4.156;2023-02-01T00:53:15;6.50;99.90
23087;DHT22;11712;51.134;4.156;2023-02-01T00:55:44;6.40;99.90
23087;DHT22;11712;51.134;4.156;2023-02-01T00:58:10;6.40;99.90
23087;DHT22;11712;51.134;4.156;2023-02-01T01:00:36;6.50;99.90
23087;DHT22;11712;51.134;4.156;2023-02-01T01:03:02;6.40;99.90
23087;DHT22;11712;51.134;4.156;2023-02-01T01:05:27;6.40;99.90
23087;DHT22;11712;51.134;4.156;2023-02-01T01:07:59;6.40;99.90
23087;DHT22;11712;51.134;4.156;2023-02-01T01:10:25;6.30;99.90
23087;DHT22;11712;51.134;4.156;2023-02-01T01:12:50;6.30;99.90
23087;DHT22;11712;51.134;4.156;2023-02-01T01:15:16;6.30;99.90
23087;DHT22;11712;51.134;4.156;2023-02-01T01:17:42;6.30;99.90
23087;DHT22;11712;51.134;4.156;2023-02-01T01:20:09;6.30;99.90
23087;DHT22;11712;51.134;4.156;2023-02-01T01:22:35;6.30;99.90
23087;DHT22;11712;51.134;4.156;2023-02-01T01:25:00;6.30;99.90
23087;DHT22;11712;51.134;4.156;2023-02-01T01:27:26;6.20;99.90
23087;DHT22;11712;51.134;4.156;2023-02-01T01:29:51;6.20;99.90
23087;DHT22;11712;51.134;4.156;2023-02-01T01:32:17;6.20;99.90
23087;DHT22;11712;51.134;4.156;2023-02-01T01:34:43;6.20;99.90
23087;DHT22;11712;51.134;4.156;2023-02-01T01:37:08;6.20;99.90
23087;DHT22;11712;51.134;4.156;2023-02-01T01:39:34;6.20;99.90
23087;DHT22;11712;51.134;4.156;2023-02-01T01:42:00;6.20;99.90
23087;DHT22;11712;51.134;4.156;2023-02-01T01:45:00;6.20;99.90
23087;DHT22;11712;51.134;4.156;2023-02-01T01:47:50;6.30;99.90
23087;DHT22;11712;51.134;4.156;2023-02-01T01:50:23;6.30;99.90
23087;DHT22;11712;51.134;4.156;2023-02-01T01:52:50;6.20;99.90
23087;DHT22;11712;51.134;4.156;2023-02-01T01:55:19;6.20;99.90
23087;DHT22;11712;51.134;4.156;2023-02-01T01:57:51;6.20;99.90
23087;DHT22;11712;51.134;4.156;2023-02-01T02:00:20;6.20;99.90
23087;DHT22;11712;51.134;4.156;2023-02-01T02:02:48;6.20;99.90
23087;DHT22;11712;51.134;4.156;2023-02-01T02:05:18;6.20;99.90
23087;DHT22;11712;51.134;4.156;2023-02-01T02:07:46;6.20;99.90
23087;DHT22;11712;51.134;4.156;2023-02-01T02:10:14;6.20;99.90
23087;DHT22;11712;51.134;4.156;2023-02-01T02:12:42;6.10;99.90
23087;DHT22;11712;51.134;4.156;2023-02-01T02:15:11;6.10;99.90
23087;DHT22;11712;51.134;4.156;2023-02-01T02:17:58;6.10;99.90
23087;DHT22;11712;51.134;4.156;2023-02-01T02:23:56;6.00;99.90
23087;DHT22;11712;51.134;4.156;2023-02-01T02:38:17;6.00;99.90
23087;DHT22;11712;51.134;4.156;2023-02-01T02:40:51;6.00;99.90
23087;DHT22;11712;51.134;4.156;2023-02-01T02:43:22;6.00;99.90
23087;DHT22;11712;51.134;4.156;2023-02-01T02:46:46;5.90;99.90
23087;DHT22;11712;51.134;4.156;2023-02-01T02:49:42;5.70;99.90
23087;DHT22;11712;51.134;4.156;2023-02-01T02:52:30;5.60;99.90
23087;DHT22;11712;51.134;4.156;2023-02-01T02:55:16;5.60;99.90
23087;DHT22;11712;51.134;4.156;2023-02-01T02:57:44;5.60;99.90
23087;DHT22;11712;51.134;4.156;2023-02-01T03:00:31;5.60;99.90
23087;DHT22;11712;51.134;4.156;2023-02-01T03:03:17;5.60;99.90
23087;DHT22;11712;51.134;4.156;2023-02-01T03:06:02;5.60;99.90
23087;DHT22;11712;51.134;4.156;2023-02-01T03:08:29;5.60;99.90
23087;DHT22;11712;51.134;4.156;2023-02-01T03:11:08;5.70;99.90
23087;DHT22;11712;51.134;4.156;2023-02-01T03:13:49;5.70;99.90
23087;DHT22;11712;51.134;4.156;2023-02-01T03:16:36;5.70;99.90
23087;DHT22;11712;51.134;4.156;2023-02-01T03:24:18;5.50;99.90
23087;DHT22;11712;51.134;4.156;2023-02-01T03:26:54;5.50;99.90
23087;DHT22;11712;51.134;4.156;2023-02-01T03:29:29;5.50;99.90
23087;DHT22;11712;51.134;4.156;2023-02-01T03:31:55;5.60;99.90
23087;DHT22;11712;51.134;4.156;2023-02-01T03:34:21;5.60;99.90
23087;DHT22;11712;51.134;4.156;2023-02-01T03:36:50;5.60;99.90
23087;DHT22;11712;51.134;4.156;2023-02-01T03:39:33;5.60;99.90
23087;DHT22;11712;51.134;4.156;2023-02-01T03:42:02;5.60;99.90
23087;DHT22;11712;51.134;4.156;2023-02-01T03:44:34;5.50;99.90
23087;DHT22;11712;51.134;4.156;2023-02-01T03:47:19;5.60;99.90
23087;DHT22;11712;51.134;4.156;2023-02-01T03:50:05;5.50;99.90
23087;DHT22;11712;51.134;4.156;2023-02-01T03:52:45;5.50;99.90
23087;DHT22;11712;51.134;4.156;2023-02-01T03:55:15;5.50;99.90
23087;DHT22;11712;51.134;4.156;2023-02-01T03:57:46;5.60;99.90
23087;DHT22;11712;51.134;4.156;2023-02-01T04:00:23;5.50;99.90
23087;DHT22;11712;51.134;4.156;2023-02-01T04:02:49;5.50;99.90
23087;DHT22;11712;51.134;4.156;2023-02-01T04:05:15;5.50;99.90
23087;DHT22;11712;51.134;4.156;2023-02-01T04:07:41;5.50;99.90
23087;DHT22;11712;51.134;4.156;2023-02-01T04:10:07;5.50;99.90
23087;DHT22;11712;51.134;4.156;2023-02-01T04:12:33;5.50;99.90
23087;DHT22;11712;51.134;4.156;2023-02-01T04:14:58;5.50;99.90
23087;DHT22;11712;51.134;4.156;2023-02-01T04:17:24;5.50;99.90
23087;DHT22;11712;51.134;4.156;2023-02-01T04:19:50;5.50;99.90
23087;DHT22;11712;51.134;4.156;2023-02-01T04:22:15;5.50;99.90
23087;DHT22;11712;51.134;4.156;2023-02-01T04:24:41;5.50;99.90
23087;DHT22;11712;51.134;4.156;2023-02-01T04:27:07;5.50;99.90
23087;DHT22;11712;51.134;4.156;2023-02-01T04:29:33;5.40;99.90
23087;DHT22;11712;51.134;4.156;2023-02-01T04:31:59;5.40;99.90
23087;DHT22;11712;51.134;4.156;2023-02-01T04:34:24;5.50;99.90
23087;DHT22;11712;51.134;4.156;2023-02-01T04:36:51;5.40;99.90
23087;DHT22;11712;51.134;4.156;2023-02-01T04:39:17;5.40;99.90
23087;DHT22;11712;51.134;4.156;2023-02-01T04:41:42;5.40;99.90
23087;DHT22;11712;51.134;4.156;2023-02-01T04:44:18;5.30;99.90
23087;DHT22;11712;51.134;4.156;2023-02-01T04:46:44;5.30;99.90
23087;DHT22;11712;51.134;4.156;2023-02-01T04:49:12;5.40;99.90
23087;DHT22;11712;51.134;4.156;2023-02-01T04:51:38;5.40;99.90
23087;DHT22;11712;51.134;4.156;2023-02-01T04:54:04;5.30;99.90
23087;DHT22;11712;51.134;4.156;2023-02-01T04:56:30;5.30;99.90
23087;DHT22;11712;51.134;4.156;2023-02-01T04:58:56;5.30;99.90
23087;DHT22;11712;51.134;4.156;2023-02-01T05:01:22;5.20;99.90
23087;DHT22;11712;51.134;4.156;2023-02-01T05:03:48;5.20;99.90
23087;DHT22;11712;51.134;4.156;2023-02-01T05:06:14;5.20;99.90
23087;DHT22;11712;51.134;4.156;2023-02-01T05:08:39;5.10;99.90
23087;DHT22;11712;51.134;4.156;2023-02-01T05:11:05;5.20;99.90
23087;DHT22;11712;51.134;4.156;2023-02-01T05:13:31;5.10;99.90
23087;DHT22;11712;51.134;4.156;2023-02-01T05:16:15;5.20;99.90
23087;DHT22;11712;51.134;4.156;2023-02-01T05:18:41;5.20;99.90
23087;DHT22;11712;51.134;4.156;2023-02-01T05:21:07;5.20;99.90
23087;DHT22;11712;51.134;4.156;2023-02-01T05:23:33;5.10;99.90
23087;DHT22;11712;51.134;4.156;2023-02-01T05:26:19;5.10;99.90
23087;DHT22;11712;51.134;4.156;2023-02-01T05:28:44;5.20;99.90
23087;DHT22;11712;51.134;4.156;2023-02-01T05:31:10;5.20;99.90
23087;DHT22;11712;51.134;4.156;2023-02-01T05:33:36;5.20;99.90
23087;DHT22;11712;51.134;4.156;2023-02-01T05:36:02;5.20;99.90
23087;DHT22;11712;51.134;4.156;2023-02-01T05:38:27;5.20;99.90
23087;DHT22;11712;51.134;4.156;2023-02-01T05:40:55;5.10;99.90
23087;DHT22;11712;51.134;4.156;2023-02-01T05:43:21;5.10;99.90
23087;DHT22;11712;51.134;4.156;2023-02-01T05:45:47;5.10;99.90
23087;DHT22;11712;51.134;4.156;2023-02-01T05:48:12;5.10;99.90
23087;DHT22;11712;51.134;4.156;2023-02-01T05:50:38;5.00;99.90
23087;DHT22;11712;51.134;4.156;2023-02-01T05:53:04;5.10;99.90
23087;DHT22;11712;51.134;4.156;2023-02-01T05:55:29;5.10;99.90
23087;DHT22;11712;51.134;4.156;2023-02-01T05:57:55;5.10;99.90
23087;DHT22;11712;51.134;4.156;2023-02-01T06:00:21;5.00;99.90
23087;DHT22;11712;51.134;4.156;2023-02-01T06:02:47;5.10;99.90
23087;DHT22;11712;51.134;4.156;2023-02-01T06:05:13;5.10;99.90
23087;DHT22;11712;51.134;4.156;2023-02-01T06:07:38;5.10;99.90
23087;DHT22;11712;51.134;4.156;2023-02-01T06:10:04;5.10;99.90
23087;DHT22;11712;51.134;4.156;2023-02-01T06:12:30;5.20;99.90
23087;DHT22;11712;51.134;4.156;2023-02-01T06:14:56;5.10;99.90
23087;DHT22;11712;51.134;4.156;2023-02-01T06:17:21;5.10;99.90
23087;DHT22;11712;51.134;4.156;2023-02-01T06:19:48;5.10;99.90
23087;DHT22;11712;51.134;4.156;2023-02-01T06:22:14;5.10;99.90
23087;DHT22;11712;51.134;4.156;2023-02-01T06:24:40;5.10;99.90
23087;DHT22;11712;51.134;4.156;2023-02-01T06:27:06;5.10;99.90
23087;DHT22;11712;51.134;4.156;2023-02-01T06:29:32;5.10;99.90
23087;DHT22;11712;51.134;4.156;2023-02-01T06:31:58;5.10;99.90
23087;DHT22;11712;51.134;4.156;2023-02-01T06:34:24;5.10;99.90
23087;DHT22;11712;51.134;4.156;2023-02-01T06:36:50;5.10;99.90
23087;DHT22;11712;51.134;4.156;2023-02-01T06:39:16;5.10;99.90
23087;DHT22;11712;51.134;4.156;2023-02-01T06:41:50;5.10;99.90
23087;DHT22;11712;51.134;4.156;2023-02-01T06:44:16;5.10;99.90
23087;DHT22;11712;51.134;4.156;2023-02-01T06:46:42;5.10;99.90
23087;DHT22;11712;51.134;4.156;2023-02-01T06:49:08;5.10;99.90
23087;DHT22;11712;51.134;4.156;2023-02-01T06:51:34;5.00;99.90
23087;DHT22;11712;51.134;4.156;2023-02-01T06:54:00;5.10;99.90
23087;DHT22;11712;51.134;4.156;2023-02-01T06:56:26;5.20;99.90
23087;DHT22;11712;51.134;4.156;2023-02-01T06:58:52;5.20;99.90
23087;DHT22;11712;51.134;4.156;2023-02-01T07:01:18;5.10;99.90
23087;DHT22;11712;51.134;4.156;2023-02-01T07:03:50;5.20;99.90
23087;DHT22;11712;51.134;4.156;2023-02-01T07:06:17;5.10;99.90
23087;DHT22;11712;51.134;4.156;2023-02-01T07:08:43;5.10;99.90
23087;DHT22;11712;51.134;4.156;2023-02-01T07:11:11;5.10;99.90
23087;DHT22;11712;51.134;4.156;2023-02-01T07:13:37;5.10;99.90
23087;DHT22;11712;51.134;4.156;2023-02-01T07:16:05;5.00;99.90
23087;DHT22;11712;51.134;4.156;2023-02-01T07:18:32;5.10;99.90
23087;DHT22;11712;51.134;4.156;2023-02-01T07:20:58;5.20;99.90
23087;DHT22;11712;51.134;4.156;2023-02-01T07:23:24;5.20;99.90
23087;DHT22;11712;51.134;4.156;2023-02-01T07:26:01;5.30;99.90
23087;DHT22;11712;51.134;4.156;2023-02-01T07:28:30;5.40;99.90
23087;DHT22;11712;51.134;4.156;2023-02-01T07:31:02;5.40;99.90
23087;DHT22;11712;51.134;4.156;2023-02-01T07:33:28;5.50;99.90
23087;DHT22;11712;51.134;4.156;2023-02-01T07:35:54;5.50;99.90
23087;DHT22;11712;51.134;4.156;2023-02-01T07:38:20;5.40;99.90
23087;DHT22;11712;51.134;4.156;2023-02-01T07:40:47;5.40;99.90
23087;DHT22;11712;51.134;4.156;2023-02-01T07:43:12;5.30;99.90
23087;DHT22;11712;51.134;4.156;2023-02-01T07:45:38;5.40;99.90
23087;DHT22;11712;51.134;4.156;2023-02-01T07:48:04;5.40;99.90
23087;DHT22;11712;51.134;4.156;2023-02-01T07:50:30;5.40;99.90
23087;DHT22;11712;51.134;4.156;2023-02-01T07:52:59;5.40;99.90
23087;DHT22;11712;51.134;4.156;2023-02-01T07:55:25;5.50;99.90
23087;DHT22;11712;51.134;4.156;2023-02-01T07:57:51;5.50;99.90
23087;DHT22;11712;51.134;4.156;2023-02-01T08:00:17;5.50;99.90
23087;DHT22;11712;51.134;4.156;2023-02-01T08:03:03;5.60;99.90
23087;DHT22;11712;51.134;4.156;2023-02-01T08:05:29;5.70;99.90
23087;DHT22;11712;51.134;4.156;2023-02-01T08:07:55;5.70;99.90
23087;DHT22;11712;51.134;4.156;2023-02-01T08:10:21;5.70;99.90
23087;DHT22;11712;51.134;4.156;2023-02-01T08:12:46;5.80;99.90
23087;DHT22;11712;51.134;4.156;2023-02-01T08:15:14;5.80;99.90
23087;DHT22;11712;51.134;4.156;2023-02-01T08:17:48;5.90;99.90
23087;DHT22;11712;51.134;4.156;2023-02-01T08:20:14;5.80;99.90
23087;DHT22;11712;51.134;4.156;2023-02-01T08:22:40;5.80;99.90
23087;DHT22;11712;51.134;4.156;2023-02-01T08:25:06;5.80;99.90
23087;DHT22;11712;51.134;4.156;2023-02-01T08:27:35;5.90;99.90
23087;DHT22;11712;51.134;4.156;2023-02-01T08:30:01;6.00;99.90
23087;DHT22;11712;51.134;4.156;2023-02-01T08:32:27;6.00;99.90
23087;DHT22;11712;51.134;4.156;2023-02-01T08:34:53;6.00;99.90
23087;DHT22;11712;51.134;4.156;2023-02-01T08:37:19;6.00;99.90
23087;DHT22;11712;51.134;4.156;2023-02-01T08:39:44;6.10;99.90
23087;DHT22;11712;51.134;4.156;2023-02-01T08:42:11;6.20;99.90
23087;DHT22;11712;51.134;4.156;2023-02-01T08:44:55;6.20;99.90
23087;DHT22;11712;51.134;4.156;2023-02-01T08:47:21;6.30;99.90
23087;DHT22;11712;51.134;4.156;2023-02-01T08:49:47;6.30;99.90
23087;DHT22;11712;51.134;4.156;2023-02-01T08:52:12;6.40;99.90
23087;DHT22;11712;51.134;4.156;2023-02-01T08:54:38;6.40;99.90
23087;DHT22;11712;51.134;4.156;2023-02-01T08:57:06;6.40;99.90
23087;DHT22;11712;51.134;4.156;2023-02-01T08:59:32;6.40;99.90
23087;DHT22;11712;51.134;4.156;2023-02-01T09:01:58;6.50;99.90
23087;DHT22;11712;51.134;4.156;2023-02-01T09:04:23;6.50;99.90
23087;DHT22;11712;51.134;4.156;2023-02-01T09:06:49;6.50;99.90
23087;DHT22;11712;51.134;4.156;2023-02-01T09:09:15;6.50;99.90
23087;DHT22;11712;51.134;4.156;2023-02-01T09:11:40;6.60;99.90
23087;DHT22;11712;51.134;4.156;2023-02-01T09:14:06;6.70;99.90
23087;DHT22;11712;51.134;4.156;2023-02-01T09:16:31;6.80;99.90
23087;DHT22;11712;51.134;4.156;2023-02-01T09:18:57;6.80;99.90
23087;DHT22;11712;51.134;4.156;2023-02-01T09:21:23;6.80;99.90
23087;DHT22;11712;51.134;4.156;2023-02-01T09:23:50;6.90;99.90
23087;DHT22;11712;51.134;4.156;2023-02-01T09:26:16;7.00;99.90
23087;DHT22;11712;51.134;4.156;2023-02-01T09:28:42;7.10;99.90
23087;DHT22;11712;51.134;4.156;2023-02-01T09:31:08;7.20;99.90
23087;DHT22;11712;51.134;4.156;2023-02-01T09:33:33;7.20;99.90
23087;DHT22;11712;51.134;4.156;2023-02-01T09:36:03;7.20;99.90
23087;DHT22;11712;51.134;4.156;2023-02-01T09:38:31;7.30;99.90
23087;DHT22;11712;51.134;4.156;2023-02-01T09:40:58;7.40;99.90
23087;DHT22;11712;51.134;4.156;2023-02-01T09:46:21;7.50;99.90
23087;DHT22;11712;51.134;4.156;2023-02-01T09:48:49;7.50;99.90
23087;DHT22;11712;51.134;4.156;2023-02-01T09:51:34;7.50;99.90
23087;DHT22;11712;51.134;4.156;2023-02-01T09:54:18;7.60;99.90
23087;DHT22;11712;51.134;4.156;2023-02-01T09:56:54;7.60;99.90
23087;DHT22;11712;51.134;4.156;2023-02-01T09:59:41;7.70;99.90
23087;DHT22;11712;51.134;4.156;2023-02-01T10:02:33;7.90;99.90
23087;DHT22;11712;51.134;4.156;2023-02-01T10:05:01;8.00;99.90
23087;DHT22;11712;51.134;4.156;2023-02-01T10:07:33;8.00;99.90
23087;DHT22;11712;51.134;4.156;2023-02-01T10:10:05;8.10;99.90
23087;DHT22;11712;51.134;4.156;2023-02-01T10:12:49;8.10;99.90
23087;DHT22;11712;51.134;4.156;2023-02-01T10:15:44;8.30;99.90
23087;DHT22;11712;51.134;4.156;2023-02-01T10:21:06;8.50;99.90
23087;DHT22;11712;51.134;4.156;2023-02-01T10:26:25;8.60;99.90
23087;DHT22;11712;51.134;4.156;2023-02-01T10:28:58;8.70;99.90
23087;DHT22;11712;51.134;4.156;2023-02-01T10:31:28;8.80;99.90
23087;DHT22;11712;51.134;4.156;2023-02-01T10:33:59;8.90;99.90
23087;DHT22;11712;51.134;4.156;2023-02-01T10:36:40;8.90;99.90
23087;DHT22;11712;51.134;4.156;2023-02-01T10:39:09;9.00;99.90
23087;DHT22;11712;51.134;4.156;2023-02-01T10:41:39;9.00;99.90
23087;DHT22;11712;51.134;4.156;2023-02-01T10:44:14;9.00;99.90
23087;DHT22;11712;51.134;4.156;2023-02-01T10:46:40;8.90;99.90
23087;DHT22;11712;51.134;4.156;2023-02-01T10:49:16;9.00;99.90
23087;DHT22;11712;51.134;4.156;2023-02-01T10:52:20;9.10;99.90
23087;DHT22;11712;51.134;4.156;2023-02-01T10:54:47;9.20;99.90
23087;DHT22;11712;51.134;4.156;2023-02-01T10:57:22;9.20;99.90
23087;DHT22;11712;51.134;4.156;2023-02-01T10:59:54;9.20;99.90
23087;DHT22;11712;51.134;4.156;2023-02-01T11:02:32;9.20;99.90
23087;DHT22;11712;51.134;4.156;2023-02-01T11:05:07;9.20;99.90
23087;DHT22;11712;51.134;4.156;2023-02-01T11:07:39;9.20;99.90
23087;DHT22;11712;51.134;4.156;2023-02-01T11:10:06;9.20;99.90
23087;DHT22;11712;51.134;4.156;2023-02-01T11:12:37;9.20;99.90
23087;DHT22;11712;51.134;4.156;2023-02-01T11:15:18;9.20;99.90
23087;DHT22;11712;51.134;4.156;2023-02-01T11:17:46;9.20;99.90
23087;DHT22;11712;51.134;4.156;2023-02-01T11:22:57;9.40;99.90
23087;DHT22;11712;51.134;4.156;2023-02-01T11:25:23;9.70;99.90
23087;DHT22;11712;51.134;4.156;2023-02-01T11:27:51;9.80;99.90
23087;DHT22;11712;51.134;4.156;2023-02-01T11:32:57;9.80;99.90
23087;DHT22;11712;51.134;4.156;2023-02-01T11:35:23;10.10;99.90
23087;DHT22;11712;51.134;4.156;2023-02-01T11:37:55;10.30;99.90
23087;DHT22;11712;51.134;4.156;2023-02-01T11:40:37;10.10;99.90
23087;DHT22;11712;51.134;4.156;2023-02-01T11:43:23;9.90;99.90
23087;DHT22;11712;51.134;4.156;2023-02-01T11:46:01;9.90;99.90
23087;DHT22;11712;51.134;4.156;2023-02-01T11:48:31;9.90;99.90
23087;DHT22;11712;51.134;4.156;2023-02-01T11:51:26;10.00;99.90
23087;DHT22;11712;51.134;4.156;2023-02-01T11:54:10;10.00;99.90
23087;DHT22;11712;51.134;4.156;2023-02-01T11:57:11;9.90;99.90
23087;DHT22;11712;51.134;4.156;2023-02-01T12:03:07;10.00;99.90
23087;DHT22;11712;51.134;4.156;2023-02-01T12:06:04;10.20;99.90
23087;DHT22;11712;51.134;4.156;2023-02-01T12:12:19;10.20;99.90
23087;DHT22;11712;51.134;4.156;2023-02-01T12:29:33;10.20;99.90
23087;DHT22;11712;51.134;4.156;2023-02-01T12:32:16;10.10;99.90
23087;DHT22;11712;51.134;4.156;2023-02-01T12:35:13;10.20;99.90
23087;DHT22;11712;51.134;4.156;2023-02-01T12:41:09;10.20;99.90
23087;DHT22;11712;51.134;4.156;2023-02-01T12:43:45;10.30;99.90
23087;DHT22;11712;51.134;4.156;2023-02-01T12:46:16;10.40;99.90
23087;DHT22;11712;51.134;4.156;2023-02-01T12:51:20;10.40;99.90
23087;DHT22;11712;51.134;4.156;2023-02-01T12:56:18;10.50;99.90
23087;DHT22;11712;51.134;4.156;2023-02-01T12:58:49;10.50;99.90
23087;DHT22;11712;51.134;4.156;2023-02-01T13:07:14;10.60;99.90
23087;DHT22;11712;51.134;4.156;2023-02-01T13:09:47;10.60;99.90
23087;DHT22;11712;51.134;4.156;2023-02-01T13:12:53;10.70;99.90
23087;DHT22;11712;51.134;4.156;2023-02-01T13:15:49;10.80;99.90
23087;DHT22;11712;51.134;4.156;2023-02-01T13:18:19;10.70;99.90
23087;DHT22;11712;51.134;4.156;2023-02-01T13:23:27;10.60;99.90
23087;DHT22;11712;51.134;4.156;2023-02-01T13:25:54;10.60;99.90
23087;DHT22;11712;51.134;4.156;2023-02-01T13:29:25;10.60;99.90
23087;DHT22;11712;51.134;4.156;2023-02-01T13:42:49;10.50;99.90
23087;DHT22;11712;51.134;4.156;2023-02-01T13:45:19;10.50;99.90
23087;DHT22;11712;51.134;4.156;2023-02-01T13:47:47;10.50;99.90
23087;DHT22;11712;51.134;4.156;2023-02-01T13:53:04;10.50;99.90
23087;DHT22;11712;51.134;4.156;2023-02-01T13:58:34;10.50;99.90
23087;DHT22;11712;51.134;4.156;2023-02-01T14:09:13;10.20;99.90
23087;DHT22;11712;51.134;4.156;2023-02-01T14:19:24;10.10;99.90
23087;DHT22;11712;51.134;4.156;2023-02-01T14:21:52;10.00;99.90
23087;DHT22;11712;51.134;4.156;2023-02-01T14:24:35;10.00;99.90
23087;DHT22;11712;51.134;4.156;2023-02-01T14:27:16;10.00;99.90
23087;DHT22;11712;51.134;4.156;2023-02-01T14:29:50;10.00;99.90
23087;DHT22;11712;51.134;4.156;2023-02-01T14:32:24;9.90;99.90
23087;DHT22;11712;51.134;4.156;2023-02-01T14:34:53;9.90;99.90
23087;DHT22;11712;51.134;4.156;2023-02-01T14:40:02;9.90;99.90
23087;DHT22;11712;51.134;4.156;2023-02-01T14:42:39;9.80;99.90
23087;DHT22;11712;51.134;4.156;2023-02-01T14:48:41;9.70;99.90
23087;DHT22;11712;51.134;4.156;2023-02-01T14:50:43;9.60;99.90
23087;DHT22;11712;51.134;4.156;2023-02-01T14:58:18;9.50;99.90
23087;DHT22;11712;51.134;4.156;2023-02-01T15:00:49;9.50;99.90
23087;DHT22;11712;51.134;4.156;2023-02-01T15:06:02;9.50;99.90
23087;DHT22;11712;51.134;4.156;2023-02-01T15:08:36;9.50;99.90
23087;DHT22;11712;51.134;4.156;2023-02-01T15:11:14;9.50;99.90
23087;DHT22;11712;51.134;4.156;2023-02-01T15:13:40;9.50;99.90
23087;DHT22;11712;51.134;4.156;2023-02-01T15:16:13;9.50;99.90
23087;DHT22;11712;51.134;4.156;2023-02-01T15:18:40;9.50;99.90
23087;DHT22;11712;51.134;4.156;2023-02-01T15:21:15;9.50;99.90
23087;DHT22;11712;51.134;4.156;2023-02-01T15:23:41;9.40;99.90
23087;DHT22;11712;51.134;4.156;2023-02-01T15:26:07;9.40;99.90
23087;DHT22;11712;51.134;4.156;2023-02-01T15:28:33;9.40;99.90
23087;DHT22;11712;51.134;4.156;2023-02-01T15:31:02;9.40;99.90
23087;DHT22;11712;51.134;4.156;2023-02-01T15:33:29;9.40;99.90
23087;DHT22;11712;51.134;4.156;2023-02-01T15:38:34;9.40;99.90
23087;DHT22;11712;51.134;4.156;2023-02-01T15:41:10;9.30;99.90
23087;DHT22;11712;51.134;4.156;2023-02-01T15:43:44;9.30;99.90
23087;DHT22;11712;51.134;4.156;2023-02-01T15:46:18;9.30;99.90
23087;DHT22;11712;51.134;4.156;2023-02-01T15:48:48;9.30;99.90
23087;DHT22;11712;51.134;4.156;2023-02-01T15:51:19;9.30;99.90
23087;DHT22;11712;51.134;4.156;2023-02-01T15:53:51;9.20;99.90
23087;DHT22;11712;51.134;4.156;2023-02-01T15:56:22;9.20;99.90
23087;DHT22;11712;51.134;4.156;2023-02-01T15:58:51;9.20;99.90
23087;DHT22;11712;51.134;4.156;2023-02-01T16:01:18;9.20;99.90
23087;DHT22;11712;51.134;4.156;2023-02-01T16:03:45;9.20;99.90
23087;DHT22;11712;51.134;4.156;2023-02-01T16:06:33;9.20;99.90
23087;DHT22;11712;51.134;4.156;2023-02-01T16:09:12;9.20;99.90
23087;DHT22;11712;51.134;4.156;2023-02-01T16:11:51;9.10;99.90
23087;DHT22;11712;51.134;4.156;2023-02-01T16:14:17;9.20;99.90
23087;DHT22;11712;51.134;4.156;2023-02-01T16:16:43;9.20;99.90
23087;DHT22;11712;51.134;4.156;2023-02-01T16:19:08;9.10;99.90
23087;DHT22;11712;51.134;4.156;2023-02-01T16:21:34;9.20;99.90
23087;DHT22;11712;51.134;4.156;2023-02-01T16:24:00;9.20;99.90
23087;DHT22;11712;51.134;4.156;2023-02-01T16:26:32;9.20;99.90
23087;DHT22;11712;51.134;4.156;2023-02-01T16:28:59;9.10;99.90
23087;DHT22;11712;51.134;4.156;2023-02-01T16:31:31;9.20;99.90
23087;DHT22;11712;51.134;4.156;2023-02-01T16:33:57;9.10;99.90
23087;DHT22;11712;51.134;4.156;2023-02-01T16:36:23;9.20;99.90
23087;DHT22;11712;51.134;4.156;2023-02-01T16:38:49;9.20;99.90
23087;DHT22;11712;51.134;4.156;2023-02-01T16:41:19;9.20;99.90
23087;DHT22;11712;51.134;4.156;2023-02-01T16:43:52;9.20;99.90
23087;DHT22;11712;51.134;4.156;2023-02-01T16:46:20;9.20;99.90
23087;DHT22;11712;51.134;4.156;2023-02-01T16:48:58;9.20;99.90
23087;DHT22;11712;51.134;4.156;2023-02-01T16:51:28;9.20;99.90
23087;DHT22;11712;51.134;4.156;2023-02-01T16:53:54;9.20;99.90
23087;DHT22;11712;51.134;4.156;2023-02-01T16:56:28;9.20;99.90
23087;DHT22;11712;51.134;4.156;2023-02-01T16:58:54;9.10;99.90
23087;DHT22;11712;51.134;4.156;2023-02-01T17:01:19;9.20;99.90
23087;DHT22;11712;51.134;4.156;2023-02-01T17:03:45;9.20;99.90
23087;DHT22;11712;51.134;4.156;2023-02-01T17:06:17;9.10;99.90
23087;DHT22;11712;51.134;4.156;2023-02-01T17:08:47;9.10;99.90
23087;DHT22;11712;51.134;4.156;2023-02-01T17:11:15;9.20;99.90
23087;DHT22;11712;51.134;4.156;2023-02-01T17:13:41;9.10;99.90
23087;DHT22;11712;51.134;4.156;2023-02-01T17:16:28;9.10;99.90
23087;DHT22;11712;51.134;4.156;2023-02-01T17:18:59;9.10;99.90
23087;DHT22;11712;51.134;4.156;2023-02-01T17:21:27;9.00;99.90
23087;DHT22;11712;51.134;4.156;2023-02-01T17:23:54;9.00;99.90
23087;DHT22;11712;51.134;4.156;2023-02-01T17:26:20;9.00;99.90
23087;DHT22;11712;51.134;4.156;2023-02-01T17:28:46;9.00;99.90
23087;DHT22;11712;51.134;4.156;2023-02-01T17:31:13;9.00;99.90
23087;DHT22;11712;51.134;4.156;2023-02-01T17:33:43;8.90;99.90
23087;DHT22;11712;51.134;4.156;2023-02-01T17:36:12;8.90;99.90
23087;DHT22;11712;51.134;4.156;2023-02-01T17:38:39;8.90;99.90
23087;DHT22;11712;51.134;4.156;2023-02-01T17:41:04;8.90;99.90
23087;DHT22;11712;51.134;4.156;2023-02-01T17:43:30;8.90;99.90
23087;DHT22;11712;51.134;4.156;2023-02-01T17:46:03;8.90;99.90
23087;DHT22;11712;51.134;4.156;2023-02-01T17:48:29;8.90;99.90
23087;DHT22;11712;51.134;4.156;2023-02-01T17:50:55;8.90;99.90
23087;DHT22;11712;51.134;4.156;2023-02-01T17:53:26;8.90;99.90
23087;DHT22;11712;51.134;4.156;2023-02-01T17:55:53;9.00;99.90
23087;DHT22;11712;51.134;4.156;2023-02-01T17:58:19;9.00;99.90
23087;DHT22;11712;51.134;4.156;2023-02-01T18:00:47;8.90;99.90
23087;DHT22;11712;51.134;4.156;2023-02-01T18:03:20;9.00;99.90
23087;DHT22;11712;51.134;4.156;2023-02-01T18:05:47;8.90;99.90
23087;DHT22;11712;51.134;4.156;2023-02-01T18:08:16;8.90;99.90